sensor_id;sensor_type;location;lat;lon;timestamp;pressure;altitude;pressure_sealevel;temperature;humidity
27334;BME280;14817;57.104;-2.094;2022-09-09T00:02:18;100085.94;;;14.21;97.52
27334;BME280;14817;57.104;-2.094;2022-09-09T00:10:37;100064.63;;;14.19;97.34
27334;BME280;14817;57.104;-2.094;2022-09-09T00:13:30;100070.66;;;14.21;97.12
27334;BME280;14817;57.104;-2.094;2022-09-09T00:16:19;100072.78;;;14.26;97.16
27334;BME280;14817;57.104;-2.094;2022-09-09T00:21:30;100083.25;;;14.21;97.35
27334;BME280;14817;57.104;-2.094;2022-09-09T00:24:08;100094.03;;;14.21;97.83
27334;BME280;14817;57.104;-2.094;2022-09-09T00:29:43;100072.31;;;14.22;98.01
27334;BME280;14817;57.104;-2.094;2022-09-09T00:32:17;100074.53;;;14.19;97.89
27334;BME280;14817;57.104;-2.094;2022-09-09T00:34:52;100084.47;;;14.18;98.10
27334;BME280;14817;57.104;-2.094;2022-09-09T00:37:22;100077.22;;;14.19;98.12
27334;BME280;14817;57.104;-2.094;2022-09-09T00:39:55;100082.59;;;14.19;98.37
27334;BME280;14817;57.104;-2.094;2022-09-09T00:42:26;100081.34;;;14.15;98.32
27334;BME280;14817;57.104;-2.094;2022-09-09T00:45:35;100079.47;;;14.15;98.45
27334;BME280;14817;57.104;-2.094;2022-09-09T00:48:10;100081.59;;;14.20;98.04
27334;BME280;14817;57.104;-2.094;2022-09-09T00:58:14;100089.78;;;14.12;97.51
27334;BME280;14817;57.104;-2.094;2022-09-09T01:03:19;100084.13;;;14.06;97.82
27334;BME280;14817;57.104;-2.094;2022-09-09T01:10:54;100074.00;;;14.08;97.91
27334;BME280;14817;57.104;-2.094;2022-09-09T01:13:29;100079.94;;;14.04;98.01
27334;BME280;14817;57.104;-2.094;2022-09-09T01:16:08;100085.22;;;14.12;97.73
27334;BME280;14817;57.104;-2.094;2022-09-09T01:18:48;100076.03;;;14.06;98.25
27334;BME280;14817;57.104;-2.094;2022-09-09T01:21:30;100083.09;;;14.07;97.71
27334;BME280;14817;57.104;-2.094;2022-09-09T01:24:26;100085.94;;;14.06;98.17
27334;BME280;14817;57.104;-2.094;2022-09-09T01:27:18;100086.81;;;14.06;98.12
27334;BME280;14817;57.104;-2.094;2022-09-09T01:29:46;100082.44;;;14.05;97.78
27334;BME280;14817;57.104;-2.094;2022-09-09T01:32:46;100089.22;;;14.01;98.41
27334;BME280;14817;57.104;-2.094;2022-09-09T01:37:53;100101.66;;;14.02;98.54
27334;BME280;14817;57.104;-2.094;2022-09-09T01:40:20;100089.22;;;14.01;98.72
27334;BME280;14817;57.104;-2.094;2022-09-09T01:42:48;100098.78;;;14.04;98.38
27334;BME280;14817;57.104;-2.094;2022-09-09T01:45:15;100099.31;;;13.99;98.80
27334;BME280;14817;57.104;-2.094;2022-09-09T01:47:43;100089.94;;;13.95;98.74
27334;BME280;14817;57.104;-2.094;2022-09-09T01:50:29;100091.91;;;14.01;98.43
27334;BME280;14817;57.104;-2.094;2022-09-09T01:52:58;100089.84;;;14.03;98.36
27334;BME280;14817;57.104;-2.094;2022-09-09T01:55:38;100088.56;;;13.99;98.24
27334;BME280;14817;57.104;-2.094;2022-09-09T02:03:35;100097.09;;;14.03;98.23
27334;BME280;14817;57.104;-2.094;2022-09-09T02:08:50;100086.97;;;13.90;98.93
27334;BME280;14817;57.104;-2.094;2022-09-09T02:11:21;100085.88;;;13.99;98.58
27334;BME280;14817;57.104;-2.094;2022-09-09T02:14:15;100087.16;;;14.03;98.32
27334;BME280;14817;57.104;-2.094;2022-09-09T02:16:57;100084.69;;;14.02;98.50
27334;BME280;14817;57.104;-2.094;2022-09-09T02:19:45;100093.50;;;13.96;98.65
27334;BME280;14817;57.104;-2.094;2022-09-09T02:22:37;100093.47;;;13.81;98.61
27334;BME280;14817;57.104;-2.094;2022-09-09T02:25:08;100105.63;;;13.77;98.50
27334;BME280;14817;57.104;-2.094;2022-09-09T02:27:37;100097.56;;;13.77;98.61
27334;BME280;14817;57.104;-2.094;2022-09-09T02:30:04;100112.22;;;13.74;98.63
27334;BME280;14817;57.104;-2.094;2022-09-09T02:32:38;100110.72;;;13.72;98.68
27334;BME280;14817;57.104;-2.094;2022-09-09T02:35:13;100135.31;;;13.68;98.58
27334;BME280;14817;57.104;-2.094;2022-09-09T02:37:45;100115.75;;;13.75;98.63
27334;BME280;14817;57.104;-2.094;2022-09-09T02:40:17;100115.38;;;13.78;98.49
27334;BME280;14817;57.104;-2.094;2022-09-09T02:42:48;100124.28;;;13.78;98.75
27334;BME280;14817;57.104;-2.094;2022-09-09T02:45:19;100120.75;;;13.78;98.95
27334;BME280;14817;57.104;-2.094;2022-09-09T02:48:34;100122.72;;;13.84;98.56
27334;BME280;14817;57.104;-2.094;2022-09-09T02:51:10;100116.31;;;13.85;98.47
27334;BME280;14817;57.104;-2.094;2022-09-09T02:53:49;100123.38;;;13.86;98.86
27334;BME280;14817;57.104;-2.094;2022-09-09T02:56:25;100127.09;;;13.85;98.76
27334;BME280;14817;57.104;-2.094;2022-09-09T02:58:56;100116.50;;;13.83;98.70
27334;BME280;14817;57.104;-2.094;2022-09-09T03:01:25;100117.97;;;13.86;98.55
27334;BME280;14817;57.104;-2.094;2022-09-09T03:03:52;100130.13;;;13.82;98.71
27334;BME280;14817;57.104;-2.094;2022-09-09T03:06:18;100127.81;;;13.79;98.77
27334;BME280;14817;57.104;-2.094;2022-09-09T03:08:50;100124.75;;;13.82;98.78
27334;BME280;14817;57.104;-2.094;2022-09-09T03:11:23;100116.31;;;13.85;98.73
27334;BME280;14817;57.104;-2.094;2022-09-09T03:13:50;100126.44;;;13.83;98.58
27334;BME280;14817;57.104;-2.094;2022-09-09T03:16:18;100119.38;;;13.82;98.88
27334;BME280;14817;57.104;-2.094;2022-09-09T03:18:49;100119.25;;;13.75;98.80
27334;BME280;14817;57.104;-2.094;2022-09-09T03:21:16;100120.47;;;13.73;98.64
27334;BME280;14817;57.104;-2.094;2022-09-09T03:23:43;100144.31;;;13.76;98.99
27334;BME280;14817;57.104;-2.094;2022-09-09T03:26:11;100136.72;;;13.79;98.35
27334;BME280;14817;57.104;-2.094;2022-09-09T03:28:42;100143.88;;;13.72;98.61
27334;BME280;14817;57.104;-2.094;2022-09-09T03:31:10;100142.56;;;13.68;99.17
27334;BME280;14817;57.104;-2.094;2022-09-09T03:33:39;100137.28;;;13.75;98.93
27334;BME280;14817;57.104;-2.094;2022-09-09T03:36:11;100143.88;;;13.72;98.54
27334;BME280;14817;57.104;-2.094;2022-09-09T03:38:38;100145.69;;;13.72;98.50
27334;BME280;14817;57.104;-2.094;2022-09-09T03:41:05;100152.47;;;13.67;98.69
27334;BME280;14817;57.104;-2.094;2022-09-09T03:43:33;100144.22;;;13.69;98.57
27334;BME280;14817;57.104;-2.094;2022-09-09T03:46:00;100147.06;;;13.67;98.41
27334;BME280;14817;57.104;-2.094;2022-09-09T03:48:28;100147.44;;;13.64;98.26
27334;BME280;14817;57.104;-2.094;2022-09-09T03:50:56;100152.13;;;13.71;98.43
27334;BME280;14817;57.104;-2.094;2022-09-09T03:53:24;100141.59;;;13.61;98.54
27334;BME280;14817;57.104;-2.094;2022-09-09T03:55:53;100154.31;;;13.67;98.60
27334;BME280;14817;57.104;-2.094;2022-09-09T03:58:27;100150.22;;;13.56;98.49
27334;BME280;14817;57.104;-2.094;2022-09-09T04:01:05;100146.97;;;13.61;98.42
27334;BME280;14817;57.104;-2.094;2022-09-09T04:03:36;100146.88;;;13.54;98.49
27334;BME280;14817;57.104;-2.094;2022-09-09T04:06:04;100157.44;;;13.56;98.81
27334;BME280;14817;57.104;-2.094;2022-09-09T04:08:33;100151.25;;;13.55;98.58
27334;BME280;14817;57.104;-2.094;2022-09-09T04:11:01;100155.97;;;13.53;98.87
27334;BME280;14817;57.104;-2.094;2022-09-09T04:13:34;100153.56;;;13.58;98.56
27334;BME280;14817;57.104;-2.094;2022-09-09T04:16:02;100144.81;;;13.56;98.77
27334;BME280;14817;57.104;-2.094;2022-09-09T04:18:31;100148.19;;;13.58;98.85
27334;BME280;14817;57.104;-2.094;2022-09-09T04:20:59;100146.41;;;13.51;99.11
27334;BME280;14817;57.104;-2.094;2022-09-09T04:23:28;100148.91;;;13.52;98.83
27334;BME280;14817;57.104;-2.094;2022-09-09T04:25:58;100139.16;;;13.51;99.01
27334;BME280;14817;57.104;-2.094;2022-09-09T04:28:31;100145.47;;;13.58;98.59
27334;BME280;14817;57.104;-2.094;2022-09-09T04:31:10;100147.25;;;13.51;99.14
27334;BME280;14817;57.104;-2.094;2022-09-09T04:33:39;100162.06;;;13.47;98.94
27334;BME280;14817;57.104;-2.094;2022-09-09T04:36:08;100142.13;;;13.56;98.86
27334;BME280;14817;57.104;-2.094;2022-09-09T04:38:35;100142.69;;;13.52;98.54
27334;BME280;14817;57.104;-2.094;2022-09-09T04:41:03;100149.72;;;13.53;98.60
27334;BME280;14817;57.104;-2.094;2022-09-09T04:43:31;100145.78;;;13.63;98.19
27334;BME280;14817;57.104;-2.094;2022-09-09T04:46:01;100138.25;;;13.59;98.77
27334;BME280;14817;57.104;-2.094;2022-09-09T04:48:29;100140.75;;;13.60;98.53
27334;BME280;14817;57.104;-2.094;2022-09-09T04:51:04;100146.16;;;13.60;98.46
27334;BME280;14817;57.104;-2.094;2022-09-09T04:53:33;100143.34;;;13.54;99.15
27334;BME280;14817;57.104;-2.094;2022-09-09T04:56:06;100146.31;;;13.59;98.69
27334;BME280;14817;57.104;-2.094;2022-09-09T04:58:39;100142.44;;;13.61;98.05
27334;BME280;14817;57.104;-2.094;2022-09-09T05:03:39;100144.09;;;13.62;98.26
27334;BME280;14817;57.104;-2.094;2022-09-09T05:06:14;100151.91;;;13.57;98.20
27334;BME280;14817;57.104;-2.094;2022-09-09T05:08:42;100155.31;;;13.51;97.86
27334;BME280;14817;57.104;-2.094;2022-09-09T05:11:17;100147.84;;;13.61;97.94
27334;BME280;14817;57.104;-2.094;2022-09-09T05:13:46;100157.06;;;13.59;98.43
27334;BME280;14817;57.104;-2.094;2022-09-09T05:16:14;100160.41;;;13.61;98.32
27334;BME280;14817;57.104;-2.094;2022-09-09T05:18:41;100156.66;;;13.70;98.18
27334;BME280;14817;57.104;-2.094;2022-09-09T05:21:14;100156.72;;;13.62;98.65
27334;BME280;14817;57.104;-2.094;2022-09-09T05:23:41;100158.03;;;13.66;98.28
27334;BME280;14817;57.104;-2.094;2022-09-09T05:26:12;100165.91;;;13.67;98.59
27334;BME280;14817;57.104;-2.094;2022-09-09T05:28:46;100159.69;;;13.67;98.84
27334;BME280;14817;57.104;-2.094;2022-09-09T05:31:15;100161.47;;;13.60;98.71
27334;BME280;14817;57.104;-2.094;2022-09-09T05:33:45;100171.38;;;13.59;98.69
27334;BME280;14817;57.104;-2.094;2022-09-09T05:36:19;100176.34;;;13.71;98.59
27334;BME280;14817;57.104;-2.094;2022-09-09T05:38:49;100173.97;;;13.67;98.46
27334;BME280;14817;57.104;-2.094;2022-09-09T05:41:18;100176.88;;;13.66;98.61
27334;BME280;14817;57.104;-2.094;2022-09-09T05:43:47;100189.31;;;13.67;98.41
27334;BME280;14817;57.104;-2.094;2022-09-09T05:46:20;100177.34;;;13.69;98.27
27334;BME280;14817;57.104;-2.094;2022-09-09T05:48:51;100182.72;;;13.69;98.40
27334;BME280;14817;57.104;-2.094;2022-09-09T05:51:22;100189.47;;;13.65;98.52
27334;BME280;14817;57.104;-2.094;2022-09-09T05:53:51;100182.72;;;13.69;98.20
27334;BME280;14817;57.104;-2.094;2022-09-09T05:56:24;100182.31;;;13.81;98.04
27334;BME280;14817;57.104;-2.094;2022-09-09T05:58:53;100186.38;;;13.77;98.27
27334;BME280;14817;57.104;-2.094;2022-09-09T06:01:29;100180.44;;;13.81;97.82
27334;BME280;14817;57.104;-2.094;2022-09-09T06:03:58;100190.56;;;13.79;97.74
27334;BME280;14817;57.104;-2.094;2022-09-09T06:06:36;100185.34;;;13.78;97.88
27334;BME280;14817;57.104;-2.094;2022-09-09T06:09:09;100198.22;;;13.67;97.67
27334;BME280;14817;57.104;-2.094;2022-09-09T06:11:39;100188.03;;;13.78;97.53
27334;BME280;14817;57.104;-2.094;2022-09-09T06:14:07;100196.53;;;13.66;98.05
27334;BME280;14817;57.104;-2.094;2022-09-09T06:16:36;100198.81;;;13.78;98.00
27334;BME280;14817;57.104;-2.094;2022-09-09T06:19:10;100203.63;;;13.82;97.50
27334;BME280;14817;57.104;-2.094;2022-09-09T06:21:39;100203.13;;;13.87;97.84
27334;BME280;14817;57.104;-2.094;2022-09-09T06:24:08;100204.13;;;13.86;97.64
27334;BME280;14817;57.104;-2.094;2022-09-09T06:26:37;100214.53;;;13.89;97.51
27334;BME280;14817;57.104;-2.094;2022-09-09T06:29:09;100216.09;;;13.83;97.04
27334;BME280;14817;57.104;-2.094;2022-09-09T06:31:36;100221.03;;;13.95;97.32
27334;BME280;14817;57.104;-2.094;2022-09-09T06:34:20;100219.25;;;13.87;96.92
27334;BME280;14817;57.104;-2.094;2022-09-09T06:36:50;100222.97;;;13.86;97.26
27334;BME280;14817;57.104;-2.094;2022-09-09T06:39:18;100228.63;;;13.91;96.81
27334;BME280;14817;57.104;-2.094;2022-09-09T06:41:45;100235.81;;;13.99;97.07
27334;BME280;14817;57.104;-2.094;2022-09-09T06:44:31;100239.97;;;14.01;96.95
27334;BME280;14817;57.104;-2.094;2022-09-09T06:47:01;100235.81;;;13.99;96.85
27334;BME280;14817;57.104;-2.094;2022-09-09T06:49:28;100248.13;;;13.93;96.41
27334;BME280;14817;57.104;-2.094;2022-09-09T06:51:56;100247.88;;;14.03;96.43
27334;BME280;14817;57.104;-2.094;2022-09-09T06:54:24;100251.06;;;14.06;96.67
27334;BME280;14817;57.104;-2.094;2022-09-09T06:56:52;100248.91;;;14.02;96.62
27334;BME280;14817;57.104;-2.094;2022-09-09T06:59:22;100249.69;;;14.11;96.07
27334;BME280;14817;57.104;-2.094;2022-09-09T07:01:52;100253.88;;;14.13;95.68
27334;BME280;14817;57.104;-2.094;2022-09-09T07:04:23;100262.22;;;14.18;95.99
27334;BME280;14817;57.104;-2.094;2022-09-09T07:06:50;100265.03;;;14.40;95.45
27334;BME280;14817;57.104;-2.094;2022-09-09T07:09:26;100280.03;;;14.42;94.89
27334;BME280;14817;57.104;-2.094;2022-09-09T07:11:53;100275.09;;;14.46;94.88
27334;BME280;14817;57.104;-2.094;2022-09-09T07:14:22;100274.88;;;14.85;94.50
27334;BME280;14817;57.104;-2.094;2022-09-09T07:16:59;100288.44;;;15.07;93.44
27334;BME280;14817;57.104;-2.094;2022-09-09T07:19:31;100295.38;;;15.31;93.42
27334;BME280;14817;57.104;-2.094;2022-09-09T07:21:59;100292.47;;;15.47;92.76
27334;BME280;14817;57.104;-2.094;2022-09-09T07:24:26;100289.28;;;15.44;91.80
27334;BME280;14817;57.104;-2.094;2022-09-09T07:26:57;100295.44;;;15.38;91.49
27334;BME280;14817;57.104;-2.094;2022-09-09T07:29:24;100301.91;;;15.22;92.09
27334;BME280;14817;57.104;-2.094;2022-09-09T07:31:50;100309.63;;;15.10;91.42
27334;BME280;14817;57.104;-2.094;2022-09-09T07:34:23;100318.09;;;15.22;91.25
27334;BME280;14817;57.104;-2.094;2022-09-09T07:36:50;100303.38;;;15.24;91.07
27334;BME280;14817;57.104;-2.094;2022-09-09T07:39:18;100316.22;;;15.37;90.43
27334;BME280;14817;57.104;-2.094;2022-09-09T07:41:49;100314.66;;;15.64;90.12
27334;BME280;14817;57.104;-2.094;2022-09-09T07:44:21;100318.00;;;15.66;89.69
27334;BME280;14817;57.104;-2.094;2022-09-09T07:46:53;100316.50;;;15.79;89.95
27334;BME280;14817;57.104;-2.094;2022-09-09T07:49:25;100335.22;;;15.65;89.27
27334;BME280;14817;57.104;-2.094;2022-09-09T07:51:59;100333.75;;;15.63;88.69
27334;BME280;14817;57.104;-2.094;2022-09-09T07:54:27;100332.41;;;15.37;89.72
27334;BME280;14817;57.104;-2.094;2022-09-09T07:56:54;100340.22;;;15.47;89.71
27334;BME280;14817;57.104;-2.094;2022-09-09T07:59:24;100343.84;;;15.24;90.50
27334;BME280;14817;57.104;-2.094;2022-09-09T08:01:53;100344.78;;;15.31;90.01
27334;BME280;14817;57.104;-2.094;2022-09-09T08:04:25;100347.75;;;15.37;90.09
27334;BME280;14817;57.104;-2.094;2022-09-09T08:06:56;100354.03;;;15.74;89.20
27334;BME280;14817;57.104;-2.094;2022-09-09T08:09:25;100356.31;;;15.91;88.74
27334;BME280;14817;57.104;-2.094;2022-09-09T08:12:04;100352.53;;;15.86;88.23
27334;BME280;14817;57.104;-2.094;2022-09-09T08:14:33;100365.66;;;16.10;87.45
27334;BME280;14817;57.104;-2.094;2022-09-09T08:17:00;100358.31;;;16.04;87.36
27334;BME280;14817;57.104;-2.094;2022-09-09T08:19:29;100358.69;;;15.80;87.54
27334;BME280;14817;57.104;-2.094;2022-09-09T08:21:58;100367.94;;;15.56;87.93
27334;BME280;14817;57.104;-2.094;2022-09-09T08:24:26;100369.31;;;15.51;86.46
27334;BME280;14817;57.104;-2.094;2022-09-09T08:26:53;100373.78;;;15.29;89.05
27334;BME280;14817;57.104;-2.094;2022-09-09T08:29:22;100378.75;;;15.41;88.56
27334;BME280;14817;57.104;-2.094;2022-09-09T08:31:53;100371.63;;;15.55;88.35
27334;BME280;14817;57.104;-2.094;2022-09-09T08:34:25;100380.28;;;15.80;86.66
27334;BME280;14817;57.104;-2.094;2022-09-09T08:36:55;100375.81;;;16.08;87.44
27334;BME280;14817;57.104;-2.094;2022-09-09T08:39:28;100376.91;;;16.14;85.44
27334;BME280;14817;57.104;-2.094;2022-09-09T08:47:28;100393.47;;;15.89;85.48
27334;BME280;14817;57.104;-2.094;2022-09-09T08:53:05;100392.66;;;16.10;84.33
27334;BME280;14817;57.104;-2.094;2022-09-09T08:58:23;100400.66;;;16.19;84.76
27334;BME280;14817;57.104;-2.094;2022-09-09T09:06:52;100416.03;;;15.82;84.51
27334;BME280;14817;57.104;-2.094;2022-09-09T09:09:39;100418.81;;;15.59;85.23
27334;BME280;14817;57.104;-2.094;2022-09-09T09:12:19;100422.91;;;15.69;85.44
27334;BME280;14817;57.104;-2.094;2022-09-09T09:14:48;100433.44;;;15.64;84.95
27334;BME280;14817;57.104;-2.094;2022-09-09T09:17:21;100423.50;;;15.80;83.88
27334;BME280;14817;57.104;-2.094;2022-09-09T09:19:50;100430.66;;;15.58;85.29
27334;BME280;14817;57.104;-2.094;2022-09-09T09:22:32;100438.94;;;15.56;84.82
27334;BME280;14817;57.104;-2.094;2022-09-09T09:28:01;100446.47;;;15.46;84.97
27334;BME280;14817;57.104;-2.094;2022-09-09T09:30:40;100442.84;;;15.39;85.72
27334;BME280;14817;57.104;-2.094;2022-09-09T09:33:22;100447.22;;;15.55;84.52
27334;BME280;14817;57.104;-2.094;2022-09-09T09:35:51;100452.69;;;15.61;83.84
27334;BME280;14817;57.104;-2.094;2022-09-09T09:38:24;100459.78;;;15.47;85.22
27334;BME280;14817;57.104;-2.094;2022-09-09T09:41:12;100455.97;;;15.57;85.41
27334;BME280;14817;57.104;-2.094;2022-09-09T09:43:41;100454.31;;;15.41;84.70
27334;BME280;14817;57.104;-2.094;2022-09-09T09:46:22;100461.44;;;15.34;84.52
27334;BME280;14817;57.104;-2.094;2022-09-09T09:48:59;100462.94;;;15.36;84.35
27334;BME280;14817;57.104;-2.094;2022-09-09T09:51:29;100462.47;;;15.32;85.52
27334;BME280;14817;57.104;-2.094;2022-09-09T09:54:26;100474.28;;;15.46;84.58
27334;BME280;14817;57.104;-2.094;2022-09-09T09:57:08;100471.34;;;15.56;83.89
27334;BME280;14817;57.104;-2.094;2022-09-09T09:59:36;100481.13;;;15.72;82.82
27334;BME280;14817;57.104;-2.094;2022-09-09T10:02:23;100476.81;;;15.63;84.70
27334;BME280;14817;57.104;-2.094;2022-09-09T10:05:24;100488.28;;;15.50;82.48
27334;BME280;14817;57.104;-2.094;2022-09-09T10:08:12;100481.38;;;15.62;83.06
27334;BME280;14817;57.104;-2.094;2022-09-09T10:11:00;100487.78;;;15.46;82.89
27334;BME280;14817;57.104;-2.094;2022-09-09T10:16:17;100487.06;;;15.52;83.44
27334;BME280;14817;57.104;-2.094;2022-09-09T10:19:00;100480.66;;;15.54;82.98
27334;BME280;14817;57.104;-2.094;2022-09-09T10:21:37;100480.16;;;15.50;83.35
27334;BME280;14817;57.104;-2.094;2022-09-09T10:27:01;100494.69;;;15.49;84.59
27334;BME280;14817;57.104;-2.094;2022-09-09T10:37:20;100488.72;;;15.24;84.57
27334;BME280;14817;57.104;-2.094;2022-09-09T10:40:02;100493.81;;;15.34;84.13
27334;BME280;14817;57.104;-2.094;2022-09-09T10:42:32;100497.38;;;15.19;83.58
27334;BME280;14817;57.104;-2.094;2022-09-09T10:45:13;100500.44;;;15.31;83.84
27334;BME280;14817;57.104;-2.094;2022-09-09T10:47:55;100491.88;;;15.27;82.30
27334;BME280;14817;57.104;-2.094;2022-09-09T10:53:24;100503.13;;;15.31;82.36
27334;BME280;14817;57.104;-2.094;2022-09-09T10:55:59;100501.19;;;15.40;83.01
27334;BME280;14817;57.104;-2.094;2022-09-09T10:58:37;100513.69;;;15.41;81.83
27334;BME280;14817;57.104;-2.094;2022-09-09T11:01:29;100502.91;;;15.70;82.15
27334;BME280;14817;57.104;-2.094;2022-09-09T11:04:02;100509.25;;;15.92;80.93
27334;BME280;14817;57.104;-2.094;2022-09-09T11:06:38;100503.47;;;16.32;81.07
27334;BME280;14817;57.104;-2.094;2022-09-09T11:09:15;100501.34;;;16.27;79.73
27334;BME280;14817;57.104;-2.094;2022-09-09T11:11:57;100511.78;;;16.30;78.32
27334;BME280;14817;57.104;-2.094;2022-09-09T11:17:33;100517.81;;;16.47;76.42
27334;BME280;14817;57.104;-2.094;2022-09-09T11:20:05;100514.59;;;16.59;77.39
27334;BME280;14817;57.104;-2.094;2022-09-09T11:22:46;100508.28;;;16.73;75.51
27334;BME280;14817;57.104;-2.094;2022-09-09T11:25:19;100512.44;;;16.90;75.75
27334;BME280;14817;57.104;-2.094;2022-09-09T11:30:47;100529.28;;;16.71;76.15
27334;BME280;14817;57.104;-2.094;2022-09-09T11:39:02;100523.38;;;16.82;75.52
27334;BME280;14817;57.104;-2.094;2022-09-09T11:41:36;100512.50;;;16.97;77.31
27334;BME280;14817;57.104;-2.094;2022-09-09T11:44:18;100536.22;;;16.59;75.41
27334;BME280;14817;57.104;-2.094;2022-09-09T11:46:50;100528.94;;;16.59;77.01
27334;BME280;14817;57.104;-2.094;2022-09-09T11:49:29;100537.97;;;16.66;76.00
27334;BME280;14817;57.104;-2.094;2022-09-09T11:51:57;100528.88;;;16.74;77.17
27334;BME280;14817;57.104;-2.094;2022-09-09T11:54:32;100527.00;;;16.53;74.62
27334;BME280;14817;57.104;-2.094;2022-09-09T11:57:00;100529.53;;;16.54;75.09
27334;BME280;14817;57.104;-2.094;2022-09-09T11:59:32;100541.22;;;16.62;75.81
27334;BME280;14817;57.104;-2.094;2022-09-09T12:02:13;100541.44;;;16.60;75.36
27334;BME280;14817;57.104;-2.094;2022-09-09T12:04:58;100539.88;;;16.51;75.77
27334;BME280;14817;57.104;-2.094;2022-09-09T12:07:39;100532.34;;;16.68;76.95
27334;BME280;14817;57.104;-2.094;2022-09-09T12:10:30;100538.09;;;16.58;75.57
27334;BME280;14817;57.104;-2.094;2022-09-09T12:13:16;100550.72;;;16.36;74.68
27334;BME280;14817;57.104;-2.094;2022-09-09T12:15:48;100534.25;;;16.31;75.83
27334;BME280;14817;57.104;-2.094;2022-09-09T12:20:59;100529.28;;;15.83;77.12
27334;BME280;14817;57.104;-2.094;2022-09-09T12:23:44;100545.19;;;15.93;77.29
27334;BME280;14817;57.104;-2.094;2022-09-09T12:29:16;100547.06;;;15.78;77.96
27334;BME280;14817;57.104;-2.094;2022-09-09T12:39:51;100553.38;;;15.85;76.30
27334;BME280;14817;57.104;-2.094;2022-09-09T12:42:20;100546.13;;;16.00;76.00
27334;BME280;14817;57.104;-2.094;2022-09-09T12:47:27;100550.88;;;15.98;76.30
27334;BME280;14817;57.104;-2.094;2022-09-09T12:49:57;100552.38;;;15.86;77.02
27334;BME280;14817;57.104;-2.094;2022-09-09T12:54:58;100547.22;;;15.76;77.23
27334;BME280;14817;57.104;-2.094;2022-09-09T12:57:33;100557.22;;;15.90;76.60
27334;BME280;14817;57.104;-2.094;2022-09-09T13:00:12;100552.38;;;15.86;75.98
27334;BME280;14817;57.104;-2.094;2022-09-09T13:05:27;100555.41;;;16.12;75.48
27334;BME280;14817;57.104;-2.094;2022-09-09T13:08:11;100556.44;;;16.11;74.29
27334;BME280;14817;57.104;-2.094;2022-09-09T13:10:47;100560.81;;;15.98;74.59
27334;BME280;14817;57.104;-2.094;2022-09-09T13:13:36;100565.41;;;15.97;74.63
27334;BME280;14817;57.104;-2.094;2022-09-09T13:16:05;100557.78;;;15.86;76.91
27334;BME280;14817;57.104;-2.094;2022-09-09T13:18:36;100558.97;;;15.83;75.92
27334;BME280;14817;57.104;-2.094;2022-09-09T13:21:05;100565.34;;;15.67;76.51
27334;BME280;14817;57.104;-2.094;2022-09-09T13:23:34;100561.06;;;15.58;76.36
27334;BME280;14817;57.104;-2.094;2022-09-09T13:26:04;100562.66;;;15.67;76.51
27334;BME280;14817;57.104;-2.094;2022-09-09T13:28:33;100571.03;;;15.58;76.61
27334;BME280;14817;57.104;-2.094;2022-09-09T13:31:04;100568.88;;;15.53;76.89
27334;BME280;14817;57.104;-2.094;2022-09-09T13:33:36;100567.78;;;15.62;77.75
27334;BME280;14817;57.104;-2.094;2022-09-09T13:36:08;100568.50;;;15.56;77.36
27334;BME280;14817;57.104;-2.094;2022-09-09T13:38:58;100576.06;;;15.61;78.32
27334;BME280;14817;57.104;-2.094;2022-09-09T13:41:28;100576.31;;;15.51;76.58
27334;BME280;14817;57.104;-2.094;2022-09-09T13:43:56;100577.63;;;15.55;77.59
27334;BME280;14817;57.104;-2.094;2022-09-09T13:46:28;100568.59;;;15.63;76.54
27334;BME280;14817;57.104;-2.094;2022-09-09T13:48:57;100566.81;;;15.55;76.57
27334;BME280;14817;57.104;-2.094;2022-09-09T13:54:01;100577.06;;;15.45;76.77
27334;BME280;14817;57.104;-2.094;2022-09-09T13:56:28;100579.38;;;15.48;76.40
27334;BME280;14817;57.104;-2.094;2022-09-09T13:58:55;100583.75;;;15.49;78.18
27334;BME280;14817;57.104;-2.094;2022-09-09T14:01:22;100580.97;;;15.57;77.36
27334;BME280;14817;57.104;-2.094;2022-09-09T14:03:54;100585.63;;;15.63;75.67
27334;BME280;14817;57.104;-2.094;2022-09-09T14:06:22;100571.88;;;15.58;75.83
27334;BME280;14817;57.104;-2.094;2022-09-09T14:08:50;100577.19;;;15.66;75.73
27334;BME280;14817;57.104;-2.094;2022-09-09T14:11:18;100586.84;;;15.61;75.99
27334;BME280;14817;57.104;-2.094;2022-09-09T14:13:44;100589.81;;;15.66;75.43
27334;BME280;14817;57.104;-2.094;2022-09-09T14:16:11;100569.81;;;15.60;75.07
27334;BME280;14817;57.104;-2.094;2022-09-09T14:18:38;100583.41;;;15.52;74.58
27334;BME280;14817;57.104;-2.094;2022-09-09T14:21:05;100574.63;;;15.50;75.03
27334;BME280;14817;57.104;-2.094;2022-09-09T14:23:32;100566.06;;;15.46;75.42
27334;BME280;14817;57.104;-2.094;2022-09-09T14:25:59;100572.59;;;15.52;74.64
27334;BME280;14817;57.104;-2.094;2022-09-09T14:28:25;100581.44;;;15.46;75.24
27334;BME280;14817;57.104;-2.094;2022-09-09T14:31:12;100576.03;;;15.46;75.20
27334;BME280;14817;57.104;-2.094;2022-09-09T14:33:40;100570.81;;;15.44;76.28
27334;BME280;14817;57.104;-2.094;2022-09-09T14:36:07;100573.91;;;15.56;75.30
27334;BME280;14817;57.104;-2.094;2022-09-09T14:38:35;100573.91;;;15.56;74.58
27334;BME280;14817;57.104;-2.094;2022-09-09T14:41:07;100570.25;;;15.49;74.74
27334;BME280;14817;57.104;-2.094;2022-09-09T14:43:37;100575.78;;;15.56;75.52
27334;BME280;14817;57.104;-2.094;2022-09-09T14:46:06;100581.59;;;15.44;74.62
27334;BME280;14817;57.104;-2.094;2022-09-09T14:48:33;100574.63;;;15.50;75.72
27334;BME280;14817;57.104;-2.094;2022-09-09T14:51:07;100576.50;;;15.49;74.77
27334;BME280;14817;57.104;-2.094;2022-09-09T14:53:34;100581.16;;;15.41;75.06
27334;BME280;14817;57.104;-2.094;2022-09-09T14:56:31;100583.09;;;15.32;75.66
27334;BME280;14817;57.104;-2.094;2022-09-09T14:58:58;100572.09;;;15.34;77.12
27334;BME280;14817;57.104;-2.094;2022-09-09T15:01:28;100567.72;;;15.32;77.55
27334;BME280;14817;57.104;-2.094;2022-09-09T15:03:57;100576.53;;;15.26;77.15